ウィーン の空港の天気 - METARとTAF

ウィーン国際空港 ( LOWW / VIE ) - オーストリア ウィーン
飛行場実況気象(Metar)
観測時間08/05 00:50 CEST (08/04 22:50 UTC)
風向・風速北西 8m/s
視程10km以上
天気現象
少しの雲 雲底高度 400m
全天の8割程度の雲 雲底高度 460m
気温15℃
湿度82%
気圧1016hPa
METARLOWW 042250Z 32015KT 9999 FEW013 BKN015 15/12 Q1016 NOSIG
過去の天気等 Google飛行場航空写真 Wunderground天気予報

過去48時間のMETAR

飛行場予報(TAF)
発表時間: 8/04 22:15 CEST (8/04 20:15 UTC)
予報対象時間: 4日23時 CEST ~ 6日5時 CEST
風向・風速西北西 7m/s
視程10km以上
全天の8割程度の雲 雲底高度 610m
4日23時 CEST ~ 5日13時 CEST に一時的に
風向・風速北西 8m/s 瞬間風速 13m/s
5日4時 CEST ~ 5日15時 CEST に一時的に
天気現象弱いしゅう雨
5日22時 CEST から
風向・風速北北西 4m/s
視程10km以上
なし
TAF LOWW 042015Z 0421/0603 30014KT 9999 BKN020 TX20/0515Z TN14/0504Z
TEMPO 0421/0511 31015G25KT
TEMPO 0502/0513 -SHRA
FM052000 33008KT CAVOK